Time;durP1;ratioP1;P1;durP2;ratioP2;P2;SDS_P1;SDS_P2;PMS_P1;PMS_P2;Temp;Humidity;BMP_temperature;BMP_pressure;BME280_temperature;BME280_humidity;BME280_pressure;Samples;Min_cycle;Max_cycle;Signal;HPM_P1;HPM_P2
2023/05/27 00:01:17;;;;;;;;;;;;;;;18.78;39.23;102503.41;7353623;19;19963;-60
2023/05/27 00:03:43;;;;;;;;;;;;;;;18.74;39.17;102497.31;7353123;19;19914;-60
2023/05/27 00:06:08;;;;;;;;;;;;;;;18.70;39.55;102495.66;7354059;19;19932;-59
2023/05/27 00:08:33;;;;;;;;;;;;;;;18.66;39.37;102491.38;7353778;19;19926;-60
2023/05/27 00:10:58;;;;;;;;;;;;;;;18.61;39.31;102493.28;7356133;19;20357;-60
2023/05/27 00:13:24;;;;;;;;;;;;;;;18.56;39.68;102487.25;7355631;19;19954;-60
2023/05/27 00:15:49;;;;;;;;;;;;;;;18.53;39.32;102487.31;7351456;19;19946;-60
2023/05/27 00:18:15;;;;;;;;;;;;;;;18.47;39.31;102491.00;7354757;19;20001;-60
2023/05/27 00:20:41;;;;;;;;;;;;;;;18.44;39.77;102492.84;7354473;19;20327;-60
2023/05/27 00:23:06;;;;;;;;;;;;;;;18.40;39.74;102487.66;7357164;19;19923;-60
2023/05/27 00:25:31;;;;;;;;;;;;;;;18.36;40.01;102483.34;7352998;19;19918;-59
2023/05/27 00:27:57;;;;;;;;;;;;;;;18.32;40.07;102486.13;7355553;19;19919;-60
2023/05/27 00:30:22;;;;;;;;;;;;;;;18.27;39.99;102486.25;7351753;19;19931;-60
2023/05/27 00:32:47;;;;;;;;;;;;;;;18.24;40.22;102482.78;7351541;19;19921;-60
2023/05/27 00:35:12;;;;;;;;;;;;;;;18.19;39.90;102488.19;7342740;19;20026;-60
2023/05/27 00:37:38;;;;;;;;;;;;;;;18.16;39.92;102477.72;7355451;19;19978;-60
2023/05/27 00:40:04;;;;;;;;;;;;;;;18.10;40.21;102478.75;7347989;19;19951;-60
2023/05/27 00:42:30;;;;;;;;;;;;;;;18.07;39.95;102478.81;7355085;19;19926;-60
2023/05/27 00:44:55;;;;;;;;;;;;;;;18.02;39.90;102480.72;7346315;19;19918;-60
2023/05/27 00:47:20;;;;;;;;;;;;;;;17.99;39.99;102480.78;7353778;19;19921;-60
2023/05/27 00:49:46;;;;;;;;;;;;;;;17.94;40.07;102481.81;7348461;19;19943;-60
2023/05/27 00:52:13;;;;;;;;;;;;;;;17.91;40.05;102476.63;7353465;19;19986;-60
2023/05/27 00:54:38;;;;;;;;;;;;;;;17.85;40.44;102467.94;7348749;19;20451;-60
2023/05/27 00:57:04;;;;;;;;;;;;;;;17.83;39.98;102468.88;7352249;19;19919;-60
2023/05/27 00:59:30;;;;;;;;;;;;;;;17.41;39.65;102402.06;7349552;19;19915;-60
2023/05/27 01:01:55;;;;;;;;;;;;;;;17.74;40.19;102459.41;7350997;19;19930;-60
2023/05/27 01:04:21;;;;;;;;;;;;;;;17.70;40.59;102456.84;7350469;19;19974;-60
2023/05/27 01:06:49;;;;;;;;;;;;;;;17.65;40.45;102454.31;7351710;19;20284;-60
2023/05/27 01:09:17;;;;;;;;;;;;;;;17.59;40.58;102450.03;7348955;19;19922;-60
2023/05/27 01:11:48;;;;;;;;;;;;;;;17.56;40.66;102449.25;7351695;19;19938;-59
2023/05/27 01:14:14;;;;;;;;;;;;;;;17.53;41.00;102444.88;7348561;19;19942;-59
2023/05/27 01:16:45;;;;;;;;;;;;;;;17.50;41.05;102438.81;7353617;19;19918;-60
2023/05/27 01:19:17;;;;;;;;;;;;;;;17.46;40.96;102438.03;7352642;19;20612;-60
2023/05/27 01:21:47;;;;;;;;;;;;;;;17.43;41.07;102448.66;7353969;19;19919;-60
2023/05/27 01:24:12;;;;;;;;;;;;;;;17.40;40.80;102437.31;7349198;19;19915;-59
2023/05/27 01:26:37;;;;;;;;;;;;;;;17.36;41.11;102436.50;7352212;19;19925;-60
2023/05/27 01:29:03;;;;;;;;;;;;;;;17.32;41.19;102433.06;7345117;19;19919;-60
2023/05/27 01:31:35;;;;;;;;;;;;;;;17.29;41.37;102437.56;7353978;19;19948;-60
2023/05/27 01:34:03;;;;;;;;;;;;;;;17.26;41.10;102434.97;7346523;19;20369;-60
2023/05/27 01:36:30;;;;;;;;;;;;;;;17.23;40.96;102435.91;7351607;19;19927;-60
2023/05/27 01:38:56;;;;;;;;;;;;;;;17.19;40.97;102436.91;7349839;19;19926;-60
2023/05/27 01:41:22;;;;;;;;;;;;;;;17.16;41.14;102433.44;7350489;19;19915;-60
2023/05/27 01:43:48;;;;;;;;;;;;;;;17.11;41.30;102431.78;7353926;19;19931;-60
2023/05/27 01:46:15;;;;;;;;;;;;;;;17.07;41.12;102437.16;7350536;19;19926;-60
2023/05/27 01:48:40;;;;;;;;;;;;;;;17.03;41.23;102428.47;7350576;19;19954;-59
2023/05/27 01:51:05;;;;;;;;;;;;;;;16.99;41.04;102425.91;7351315;19;20304;-60
2023/05/27 01:53:31;;;;;;;;;;;;;;;16.95;41.18;102432.16;7351138;19;19925;-60
2023/05/27 01:55:56;;;;;;;;;;;;;;;16.91;41.13;102428.69;7350727;19;19926;-60
2023/05/27 01:58:21;;;;;;;;;;;;;;;16.86;41.19;102425.28;7336682;19;21796;-60
2023/05/27 02:00:46;;;;;;;;;;;;;;;16.81;41.36;102422.75;7347991;19;19994;-59
2023/05/27 02:03:12;;;;;;;;;;;;;;;16.78;41.60;102420.19;7349109;19;19923;-60
2023/05/27 02:05:37;;;;;;;;;;;;;;;16.74;41.24;102415.88;7346447;19;19950;-60
2023/05/27 02:08:02;;;;;;;;;;;;;;;16.71;41.35;102410.66;7346952;19;19928;-60
2023/05/27 02:10:28;;;;;;;;;;;;;;;16.67;41.34;102408.94;7349590;19;20262;-60
2023/05/27 02:12:53;;;;;;;;;;;;;;;16.64;41.81;102409.03;7342003;19;19926;-60
2023/05/27 02:15:18;;;;;;;;;;;;;;;16.60;41.52;102402.94;7355622;19;19967;-60
2023/05/27 02:17:50;;;;;;;;;;;;;;;16.58;41.51;102403.88;7353719;19;19929;-60
2023/05/27 02:20:16;;;;;;;;;;;;;;;16.54;41.97;102396.94;7350029;19;19919;-60
2023/05/27 02:22:41;;;;;;;;;;;;;;;16.51;42.01;102407.53;7354134;19;19930;-60
2023/05/27 02:25:06;;;;;;;;;;;;;;;16.47;42.06;102405.84;7353769;19;20027;-60
2023/05/27 02:27:31;;;;;;;;;;;;;;;16.44;41.81;102400.66;7347254;19;19964;-60
2023/05/27 02:29:57;;;;;;;;;;;;;;;16.41;41.89;102398.06;7352852;19;20761;-60
2023/05/27 02:32:22;;;;;;;;;;;;;;;16.37;42.25;102393.75;7357562;19;19982;-59
2023/05/27 02:34:47;;;;;;;;;;;;;;;16.32;41.87;102385.91;7358804;19;19919;-59
2023/05/27 02:37:13;;;;;;;;;;;;;;;16.28;41.96;102390.41;7353323;19;19921;-60
2023/05/27 02:39:38;;;;;;;;;;;;;;;16.25;41.93;102379.91;7357322;19;20748;-59
2023/05/27 02:42:04;;;;;;;;;;;;;;;16.22;42.27;102385.25;7356387;19;19942;-60
2023/05/27 02:44:29;;;;;;;;;;;;;;;15.80;42.34;102319.28;7355257;19;20395;-60
2023/05/27 02:46:55;;;;;;;;;;;;;;;16.17;42.33;102376.56;7319734;19;19926;-60
2023/05/27 02:49:20;;;;;;;;;;;;;;;16.13;42.34;102376.66;7360967;19;19931;-60
2023/05/27 02:51:45;;;;;;;;;;;;;;;16.10;42.50;102372.31;7360700;19;19919;-60
2023/05/27 02:54:10;;;;;;;;;;;;;;;16.08;42.70;102366.19;7361109;19;19928;-60
2023/05/27 02:56:36;;;;;;;;;;;;;;;16.05;42.57;102363.63;7360460;19;19922;-60
2023/05/27 02:59:01;;;;;;;;;;;;;;;16.02;42.40;102361.06;7356902;19;19925;-60
2023/05/27 03:01:26;;;;;;;;;;;;;;;15.99;42.47;102361.09;7361413;19;19925;-60
2023/05/27 03:03:51;;;;;;;;;;;;;;;15.98;42.65;102359.38;7359246;19;20253;-60
2023/05/27 03:06:17;;;;;;;;;;;;;;;15.95;42.63;102360.28;7358860;19;19931;-60
2023/05/27 03:08:42;;;;;;;;;;;;;;;15.92;42.83;102354.22;7360401;19;20446;-60
2023/05/27 03:11:07;;;;;;;;;;;;;;;15.91;42.79;102357.72;7358688;19;20084;-60
2023/05/27 03:13:32;;;;;;;;;;;;;;;15.87;42.70;102351.66;7355786;19;19919;-60
2023/05/27 03:15:58;;;;;;;;;;;;;;;15.85;42.79;102356.06;7357696;19;19922;-59
2023/05/27 03:18:23;;;;;;;;;;;;;;;15.82;42.92;102359.66;7356073;19;19919;-60
2023/05/27 03:20:50;;;;;;;;;;;;;;;15.79;42.65;102349.16;7357340;19;19939;-60
2023/05/27 03:23:15;;;;;;;;;;;;;;;15.76;43.06;102349.22;7357196;19;19954;-60
2023/05/27 03:25:40;;;;;;;;;;;;;;;15.73;42.74;102338.75;7359427;19;20335;-60
2023/05/27 03:28:06;;;;;;;;;;;;;;;15.70;42.74;102341.41;7357899;19;20650;-59
2023/05/27 03:30:32;;;;;;;;;;;;;;;15.66;43.13;102336.22;7359457;19;19974;-59
2023/05/27 03:32:57;;;;;;;;;;;;;;;15.63;42.92;102337.16;7358245;19;20256;-59
2023/05/27 03:35:23;;;;;;;;;;;;;;;15.59;42.90;102335.44;7358199;19;19937;-59
2023/05/27 03:37:48;;;;;;;;;;;;;;;15.56;43.14;102335.47;7359470;19;19939;-60
2023/05/27 03:40:13;;;;;;;;;;;;;;;15.53;43.15;102330.28;7360051;19;19922;-60
2023/05/27 03:42:38;;;;;;;;;;;;;;;15.51;43.29;102326.78;7355393;19;20638;-60
2023/05/27 03:45:04;;;;;;;;;;;;;;;15.47;43.39;102325.13;7353544;19;19926;-59
2023/05/27 03:47:29;;;;;;;;;;;;;;;15.44;43.28;102319.91;7361123;19;19955;-60
2023/05/27 03:49:54;;;;;;;;;;;;;;;15.41;42.96;102319.94;7356666;19;19918;-59
2023/05/27 03:52:20;;;;;;;;;;;;;;;15.39;43.26;102325.25;7359352;19;19926;-60
2023/05/27 03:54:45;;;;;;;;;;;;;;;15.34;43.12;102319.19;7358483;19;19918;-60
2023/05/27 03:57:11;;;;;;;;;;;;;;;15.31;43.31;102321.91;7359500;19;19923;-60
2023/05/27 03:59:37;;;;;;;;;;;;;;;15.28;43.05;102309.63;7355288;19;19918;-60
2023/05/27 04:02:02;;;;;;;;;;;;;;;15.23;43.08;102316.75;7356179;19;19986;-60
2023/05/27 04:04:27;;;;;;;;;;;;;;;15.21;43.60;102315.91;7360241;19;20007;-60
2023/05/27 04:06:53;;;;;;;;;;;;;;;15.19;43.18;102317.69;7357308;19;19918;-60
2023/05/27 04:09:18;;;;;;;;;;;;;;;15.17;43.60;102322.09;7356455;19;20498;-60
2023/05/27 04:11:46;;;;;;;;;;;;;;;15.15;43.31;102334.41;7357368;19;19922;-60
2023/05/27 04:14:12;;;;;;;;;;;;;;;15.13;43.72;102320.41;7358524;19;19929;-60
2023/05/27 04:16:37;;;;;;;;;;;;;;;15.10;43.74;102330.97;7360041;19;19914;-59
2023/05/27 04:19:03;;;;;;;;;;;;;;;15.08;43.48;102330.13;7357351;19;19918;-60
2023/05/27 04:21:28;;;;;;;;;;;;;;;15.07;43.93;102332.81;7359375;19;19929;-60
2023/05/27 04:23:54;;;;;;;;;;;;;;;15.04;43.87;102326.69;7355178;19;19926;-60
2023/05/27 04:26:19;;;;;;;;;;;;;;;15.01;43.67;102325.88;7358759;19;20481;-60
2023/05/27 04:28:45;;;;;;;;;;;;;;;15.00;43.58;102324.13;7357047;19;19922;-60
2023/05/27 04:31:12;;;;;;;;;;;;;;;14.98;43.84;102320.66;7358489;19;19990;-60
2023/05/27 04:33:40;;;;;;;;;;;;;;;14.97;44.09;102324.19;7358491;19;20598;-60
2023/05/27 04:36:06;;;;;;;;;;;;;;;14.95;43.76;102328.56;7353170;19;19922;-60
2023/05/27 04:38:32;;;;;;;;;;;;;;;14.93;43.78;102325.13;7357425;19;20637;-60
2023/05/27 04:40:58;;;;;;;;;;;;;;;14.93;44.19;102325.97;7359037;19;20714;-60
2023/05/27 04:43:24;;;;;;;;;;;;;;;14.92;44.27;102320.75;7355600;19;19954;-59
2023/05/27 04:45:50;;;;;;;;;;;;;;;14.91;44.37;102319.00;7357658;19;19918;-60
2023/05/27 04:48:15;;;;;;;;;;;;;;;14.90;43.91;102322.50;7357515;19;19934;-59
2023/05/27 04:50:40;;;;;;;;;;;;;;;14.90;44.36;102317.25;7358474;19;20521;-59
2023/05/27 04:53:06;;;;;;;;;;;;;;;14.88;44.21;102313.78;7357233;19;19923;-60
2023/05/27 04:55:32;;;;;;;;;;;;;;;14.87;44.21;102317.31;7357212;19;19935;-60
2023/05/27 04:57:58;;;;;;;;;;;;;;;14.87;44.51;102317.31;7354143;19;20014;-60
2023/05/27 05:00:33;;;;;;;;;;;;;;;14.86;44.35;102315.59;7357599;19;19929;-60
2023/05/27 05:03:00;;;;;;;;;;;;;;;14.86;44.78;102316.44;7355396;19;20239;-60
2023/05/27 05:05:26;;;;;;;;;;;;;;;14.87;44.58;102317.31;7355382;19;19918;-60
2023/05/27 05:07:51;;;;;;;;;;;;;;;14.87;44.63;102312.91;7356725;19;20642;-60
2023/05/27 05:10:16;;;;;;;;;;;;;;;14.87;44.43;102320.81;7354151;19;20687;-60
2023/05/27 05:12:42;;;;;;;;;;;;;;;14.87;44.49;102318.19;7355655;19;19918;-59
2023/05/27 05:15:08;;;;;;;;;;;;;;;14.88;44.54;102314.66;7359188;19;19914;-59
2023/05/27 05:17:33;;;;;;;;;;;;;;;14.90;44.56;102310.25;7355121;19;19942;-59
2023/05/27 05:19:58;;;;;;;;;;;;;;;14.90;44.87;102307.63;7355395;19;19918;-60
2023/05/27 05:22:23;;;;;;;;;;;;;;;14.92;44.42;102315.50;7350903;19;19930;-60
2023/05/27 05:24:49;;;;;;;;;;;;;;;14.92;44.54;102310.22;7352654;19;20872;-60
2023/05/27 05:27:15;;;;;;;;;;;;;;;14.93;44.31;102311.97;7354471;19;19923;-60
2023/05/27 05:29:40;;;;;;;;;;;;;;;14.93;44.27;102311.97;7356183;19;19927;-60
2023/05/27 05:32:06;;;;;;;;;;;;;;;14.94;44.69;102304.03;7356322;19;19942;-59
2023/05/27 05:34:31;;;;;;;;;;;;;;;14.96;44.24;102312.78;7355766;19;19922;-60
2023/05/27 05:36:57;;;;;;;;;;;;;;;14.98;44.75;102307.50;7354389;19;19934;-59
2023/05/27 05:39:22;;;;;;;;;;;;;;;15.00;44.79;102308.31;7355722;19;19939;-60
2023/05/27 05:41:47;;;;;;;;;;;;;;;15.05;44.62;102311.75;7353030;19;19927;-59
2023/05/27 05:44:13;;;;;;;;;;;;;;;15.07;44.63;102310.00;7355270;19;19942;-60
2023/05/27 05:46:38;;;;;;;;;;;;;;;15.11;44.47;102309.06;7355940;19;20382;-60
2023/05/27 05:49:04;;;;;;;;;;;;;;;15.13;44.11;102299.38;7355447;19;19925;-60
2023/05/27 05:51:30;;;;;;;;;;;;;;;15.16;44.53;102294.06;7364409;19;19915;-59
2023/05/27 05:53:56;;;;;;;;;;;;;;;15.20;44.48;102294.84;7359588;19;19915;-59
2023/05/27 05:56:21;;;;;;;;;;;;;;;15.23;44.29;102300.94;7360155;19;20457;-60
2023/05/27 05:58:47;;;;;;;;;;;;;;;15.26;44.18;102293.00;7350316;19;20324;-59
2023/05/27 06:01:12;;;;;;;;;;;;;;;15.29;44.03;102300.84;7360200;19;20297;-60
2023/05/27 06:03:37;;;;;;;;;;;;;;;15.33;44.04;102293.78;7358736;19;19929;-60
2023/05/27 06:06:03;;;;;;;;;;;;;;;15.37;44.37;102295.47;7358740;19;20421;-60
2023/05/27 06:08:28;;;;;;;;;;;;;;;15.41;43.94;102293.63;7357642;19;19930;-60
2023/05/27 06:10:53;;;;;;;;;;;;;;;15.45;44.03;102285.66;7359188;19;20336;-60
2023/05/27 06:13:19;;;;;;;;;;;;;;;15.49;43.94;102291.75;7353919;19;20260;-57
2023/05/27 06:15:44;;;;;;;;;;;;;;;15.54;44.23;102292.53;7360600;19;19950;-60
2023/05/27 06:18:09;;;;;;;;;;;;;;;15.57;44.03;102289.84;7357262;19;20392;-60
2023/05/27 06:20:34;;;;;;;;;;;;;;;15.61;44.33;102286.22;7356712;19;19927;-60
2023/05/27 06:23:00;;;;;;;;;;;;;;;15.66;44.34;102288.81;7358494;19;20804;-60
2023/05/27 06:25:25;;;;;;;;;;;;;;;15.70;43.94;102291.38;7354785;19;19930;-60
2023/05/27 06:27:50;;;;;;;;;;;;;;;15.74;44.05;102293.06;7357252;19;19914;-60
2023/05/27 06:30:16;;;;;;;;;;;;;;;15.78;44.14;102294.75;7360997;19;19922;-60
2023/05/27 06:32:41;;;;;;;;;;;;;;;15.83;43.93;102292.88;7357255;19;19921;-60
2023/05/27 06:35:07;;;;;;;;;;;;;;;15.89;44.36;102301.56;7354368;19;19986;-60
2023/05/27 06:37:32;;;;;;;;;;;;;;;15.92;44.10;102291.84;7359200;19;19923;-60
2023/05/27 06:39:57;;;;;;;;;;;;;;;15.96;44.02;102282.97;7357213;19;20181;-58
2023/05/27 06:42:22;;;;;;;;;;;;;;;16.01;44.10;102274.97;7356826;19;19923;-60
2023/05/27 06:44:48;;;;;;;;;;;;;;;16.04;44.25;102272.28;7360277;19;19996;-60
2023/05/27 06:47:14;;;;;;;;;;;;;;;16.09;44.30;102265.16;7333410;19;20617;-60
2023/05/27 06:49:39;;;;;;;;;;;;;;;16.13;44.37;102264.19;7359637;19;19918;-60
2023/05/27 06:52:05;;;;;;;;;;;;;;;16.17;43.91;102271.16;7356639;19;19936;-60
2023/05/27 06:54:30;;;;;;;;;;;;;;;16.21;43.89;102267.53;7358364;19;19982;-60
2023/05/27 06:56:56;;;;;;;;;;;;;;;16.26;43.93;102265.66;7358931;19;19923;-60
2023/05/27 06:59:21;;;;;;;;;;;;;;;16.31;44.25;102274.34;7355264;19;19922;-60
2023/05/27 07:01:46;;;;;;;;;;;;;;;16.35;44.34;102268.09;7358004;19;19927;-57
2023/05/27 07:04:11;;;;;;;;;;;;;;;16.41;44.40;102267.09;7355811;19;20705;-60
2023/05/27 07:06:37;;;;;;;;;;;;;;;16.45;44.35;102266.13;7355189;19;19997;-60
2023/05/27 07:09:02;;;;;;;;;;;;;;;16.50;44.37;102263.41;7355993;19;19915;-60
2023/05/27 07:11:28;;;;;;;;;;;;;;;16.54;44.52;102258.03;7353990;19;20617;-60
2023/05/27 07:13:53;;;;;;;;;;;;;;;16.59;44.41;102263.19;7357229;19;19919;-60
2023/05/27 07:16:19;;;;;;;;;;;;;;;16.63;44.47;102270.13;7356394;19;19967;-60
2023/05/27 07:18:44;;;;;;;;;;;;;;;16.67;44.42;102261.22;7353216;19;19922;-60
2023/05/27 07:21:09;;;;;;;;;;;;;;;16.73;44.13;102271.69;7352210;19;19922;-60
2023/05/27 07:23:34;;;;;;;;;;;;;;;16.77;44.37;102268.06;7358044;19;19927;-60
2023/05/27 07:26:00;;;;;;;;;;;;;;;16.81;44.38;102264.44;7355400;19;20422;-60
2023/05/27 07:28:25;;;;;;;;;;;;;;;16.86;44.20;102262.56;7354635;19;19923;-59
2023/05/27 07:30:50;;;;;;;;;;;;;;;16.92;43.96;102265.97;7355933;19;20391;-61
2023/05/27 07:33:16;;;;;;;;;;;;;;;16.96;44.71;102267.63;7360693;19;19942;-60
2023/05/27 07:35:41;;;;;;;;;;;;;;;16.99;44.21;102259.66;7350226;19;19940;-60
2023/05/27 07:38:06;;;;;;;;;;;;;;;17.05;44.43;102262.13;7357292;19;20515;-61
2023/05/27 07:40:31;;;;;;;;;;;;;;;16.90;44.23;102234.34;7357718;19;20162;-60
2023/05/27 07:42:57;;;;;;;;;;;;;;;17.13;44.77;102265.44;7356565;19;19926;-60
2023/05/27 07:45:22;;;;;;;;;;;;;;;17.16;44.91;102257.44;7355777;19;19925;-60
2023/05/27 07:47:47;;;;;;;;;;;;;;;17.22;44.54;102265.19;7348985;19;19922;-60
2023/05/27 07:50:13;;;;;;;;;;;;;;;17.25;44.94;102259.84;7350411;19;19911;-60
2023/05/27 07:52:39;;;;;;;;;;;;;;;17.31;44.91;102264.13;7352824;19;20261;-60
2023/05/27 07:55:05;;;;;;;;;;;;;;;17.36;44.64;102264.84;7356352;19;19921;-60
2023/05/27 07:57:30;;;;;;;;;;;;;;;17.41;44.78;102254.19;7356897;19;19918;-60
2023/05/27 07:59:55;;;;;;;;;;;;;;;17.47;44.65;102261.94;7357593;19;20574;-60
2023/05/27 08:02:22;;;;;;;;;;;;;;;17.50;44.71;102252.16;7355462;19;19919;-60
2023/05/27 08:04:47;;;;;;;;;;;;;;;17.55;44.64;102252.03;7348060;19;19986;-60
2023/05/27 08:07:13;;;;;;;;;;;;;;;17.59;44.60;102248.41;7355095;19;19994;-60
2023/05/27 08:09:38;;;;;;;;;;;;;;;17.66;44.68;102239.41;7352493;19;19922;-61
2023/05/27 08:12:03;;;;;;;;;;;;;;;17.71;44.69;102242.78;7346113;19;19937;-60
2023/05/27 08:14:29;;;;;;;;;;;;;;;17.77;44.85;102244.41;7347936;19;19943;-60
2023/05/27 08:16:54;;;;;;;;;;;;;;;17.82;45.04;102242.50;7354733;19;20626;-60
2023/05/27 08:19:19;;;;;;;;;;;;;;;17.88;44.66;102239.69;7353876;19;19923;-60
2023/05/27 08:21:45;;;;;;;;;;;;;;;17.93;44.91;102235.13;7351590;19;19956;-61
2023/05/27 08:24:12;;;;;;;;;;;;;;;17.98;45.20;102238.50;7352755;19;19919;-60
2023/05/27 08:26:37;;;;;;;;;;;;;;;18.05;45.04;102236.56;7355725;19;20523;-60
2023/05/27 08:29:02;;;;;;;;;;;;;;;18.10;45.09;102239.94;7350994;19;20791;-60
2023/05/27 08:31:28;;;;;;;;;;;;;;;18.16;44.42;102247.69;7353845;19;19918;-60
2023/05/27 08:33:53;;;;;;;;;;;;;;;18.20;44.36;102241.41;7351828;19;20249;-60
2023/05/27 08:36:19;;;;;;;;;;;;;;;18.25;45.04;102244.78;7351919;19;19926;-60
2023/05/27 08:38:44;;;;;;;;;;;;;;;18.31;45.05;102244.59;7353874;19;19923;-60
2023/05/27 08:41:10;;;;;;;;;;;;;;;18.34;45.03;102233.91;7341480;19;19982;-60
2023/05/27 08:43:35;;;;;;;;;;;;;;;18.40;44.69;102244.31;7339433;19;19918;-60
2023/05/27 08:46:01;;;;;;;;;;;;;;;18.46;44.62;102243.25;7353908;19;20646;-61
2023/05/27 08:48:26;;;;;;;;;;;;;;;18.51;44.81;102240.47;7353094;19;19927;-61
2023/05/27 08:50:52;;;;;;;;;;;;;;;18.56;45.15;102238.53;7351055;19;20803;-61
2023/05/27 08:53:18;;;;;;;;;;;;;;;18.62;44.93;102241.00;7356497;19;19906;-60
2023/05/27 08:55:44;;;;;;;;;;;;;;;18.68;45.08;102235.53;7353255;19;19942;-60
2023/05/27 08:58:10;;;;;;;;;;;;;;;18.75;44.15;102233.53;7354719;19;19922;-60
2023/05/27 09:00:36;;;;;;;;;;;;;;;18.79;44.59;102233.38;7355057;19;19961;-60
2023/05/27 09:03:02;;;;;;;;;;;;;;;18.85;44.72;102230.53;7349215;19;20738;-61
2023/05/27 09:05:28;;;;;;;;;;;;;;;18.91;44.98;102238.31;7355839;19;19927;-58
2023/05/27 09:07:54;;;;;;;;;;;;;;;18.97;44.93;102233.72;7350674;19;19917;-60
2023/05/27 09:10:19;;;;;;;;;;;;;;;19.04;44.46;102236.09;7348970;19;20331;-61
2023/05/27 09:12:45;;;;;;;;;;;;;;;19.10;44.41;102240.31;7333651;19;19913;-60
2023/05/27 09:15:11;;;;;;;;;;;;;;;19.15;44.57;102231.28;7348954;19;20050;-59
2023/05/27 09:17:40;;;;;;;;;;;;;;;19.23;44.38;102230.19;7347313;19;19922;-60
2023/05/27 09:20:07;;;;;;;;;;;;;;;19.31;44.47;102233.41;7350401;19;19990;-60
2023/05/27 09:22:32;;;;;;;;;;;;;;;19.44;44.83;102229.44;7351222;19;19938;-57
2023/05/27 09:24:58;;;;;;;;;;;;;;;19.62;45.14;102228.81;7348324;19;19918;-61
2023/05/27 09:27:24;;;;;;;;;;;;;;;19.84;45.25;102218.28;7351811;19;19954;-61
2023/05/27 09:29:49;;;;;;;;;;;;;;;20.12;44.53;102220.75;7348237;19;20410;-61
2023/05/27 09:32:23;;;;;;;;;;;;;;;20.43;44.96;102223.06;7352477;19;19918;-61
2023/05/27 09:34:48;;;;;;;;;;;;;;;20.77;44.64;102216.41;7350993;19;20322;-61
2023/05/27 09:37:14;;;;;;;;;;;;;;;21.10;45.08;102218.59;7350360;19;19918;-61
2023/05/27 09:39:39;;;;;;;;;;;;;;;21.47;44.79;102213.44;7348255;19;19915;-61
2023/05/27 09:42:05;;;;;;;;;;;;;;;21.84;44.44;102211.78;7348098;19;19911;-61
2023/05/27 09:44:36;;;;;;;;;;;;;;;22.18;44.43;102215.56;7345248;19;20019;-61
2023/05/27 09:47:02;;;;;;;;;;;;;;;22.53;43.72;102209.41;7343008;19;20687;-61
2023/05/27 09:49:29;;;;;;;;;;;;;;;22.84;43.78;102215.00;7350096;19;19919;-61
2023/05/27 09:51:57;;;;;;;;;;;;;;;23.15;43.69;102214.34;7353074;19;19910;-61
2023/05/27 09:54:23;;;;;;;;;;;;;;;23.47;43.68;102200.22;7348167;19;19922;-61
2023/05/27 09:56:49;;;;;;;;;;;;;;;23.81;43.61;102215.28;7351190;19;19927;-61
2023/05/27 09:59:14;;;;;;;;;;;;;;;24.14;43.51;102206.38;7346342;19;19927;-61
2023/05/27 10:01:40;;;;;;;;;;;;;;;24.47;43.02;102214.31;7352563;19;19933;-61
2023/05/27 10:04:06;;;;;;;;;;;;;;;24.80;42.76;102205.31;7348488;19;19994;-58
2023/05/27 10:06:32;;;;;;;;;;;;;;;25.11;43.01;102209.72;7353097;19;19955;-58
2023/05/27 10:08:58;;;;;;;;;;;;;;;25.45;43.01;102202.31;7348657;19;19918;-58
2023/05/27 10:11:26;;;;;;;;;;;;;;;25.82;42.43;102207.13;7351234;19;19925;-59
2023/05/27 10:13:51;;;;;;;;;;;;;;;26.23;42.71;102200.06;7344645;19;19915;-58
2023/05/27 10:16:20;;;;;;;;;;;;;;;26.65;42.66;102199.94;7343680;19;20337;-59
2023/05/27 10:18:52;;;;;;;;;;;;;;;27.12;42.50;102200.41;7353413;19;19923;-59
2023/05/27 10:21:20;;;;;;;;;;;;;;;27.56;41.59;102199.97;7350548;19;19930;-59
2023/05/27 10:23:55;;;;;;;;;;;;;;;27.97;41.67;102203.38;7348566;19;19934;-58
2023/05/27 10:26:30;;;;;;;;;;;;;;;28.31;40.95;102207.16;7331580;19;19950;-59
2023/05/27 10:29:04;;;;;;;;;;;;;;;28.55;40.26;102205.34;7345725;19;19922;-59
2023/05/27 10:31:30;;;;;;;;;;;;;;;28.71;40.12;102205.06;7346579;19;19914;-58
2023/05/27 10:33:57;;;;;;;;;;;;;;;28.78;39.66;102200.06;7349385;19;19911;-58
2023/05/27 10:36:23;;;;;;;;;;;;;;;28.79;39.29;102201.75;7345273;19;19914;-58
2023/05/27 10:38:59;;;;;;;;;;;;;;;28.52;38.95;102165.25;7356300;19;19927;-58
2023/05/27 10:41:24;;;;;;;;;;;;;;;28.64;38.07;102191.22;7355084;19;19926;-58
2023/05/27 10:43:57;;;;;;;;;;;;;;;28.52;38.27;102193.97;7354071;19;19914;-58
2023/05/27 10:46:22;;;;;;;;;;;;;;;28.37;37.93;102187.91;7354101;19;19910;-59
2023/05/27 10:48:47;;;;;;;;;;;;;;;28.24;38.05;102179.03;7357723;19;19922;-58
2023/05/27 10:51:12;;;;;;;;;;;;;;;28.19;38.17;102182.91;7351506;19;19910;-59
2023/05/27 10:53:38;;;;;;;;;;;;;;;28.21;38.78;102173.88;7353546;19;19922;-59
2023/05/27 10:56:04;;;;;;;;;;;;;;;28.27;38.51;102173.41;7352690;19;20338;-59
2023/05/27 10:58:29;;;;;;;;;;;;;;;28.30;38.22;102170.50;7350411;19;20156;-57
2023/05/27 11:00:56;;;;;;;;;;;;;;;28.33;37.90;102171.16;7347476;19;20658;-58
2023/05/27 11:03:27;;;;;;;;;;;;;;;28.36;37.91;102168.25;7355870;19;20748;-58
2023/05/27 11:06:01;;;;;;;;;;;;;;;28.39;37.91;102159.13;7356302;19;19954;-58
2023/05/27 11:08:27;;;;;;;;;;;;;;;28.39;38.04;102162.66;7355296;19;20331;-58
2023/05/27 11:10:59;;;;;;;;;;;;;;;28.40;37.72;102160.81;7351241;19;19974;-58
2023/05/27 11:13:34;;;;;;;;;;;;;;;28.44;37.94;102165.00;7356152;19;19954;-58
2023/05/27 11:16:01;;;;;;;;;;;;;;;28.50;37.73;102161.84;7355043;19;20919;-58
2023/05/27 11:18:33;;;;;;;;;;;;;;;28.55;37.86;102162.34;7350711;19;19945;-59
2023/05/27 11:20:58;;;;;;;;;;;;;;;28.62;38.08;102158.22;7355916;19;20263;-59
2023/05/27 11:23:33;;;;;;;;;;;;;;;28.69;37.64;102154.09;7353364;19;19919;-58
2023/05/27 11:25:58;;;;;;;;;;;;;;;28.75;37.88;102146.53;7352540;19;19926;-58
2023/05/27 11:28:23;;;;;;;;;;;;;;;28.76;37.26;102143.72;7340978;19;19934;-58
2023/05/27 11:30:50;;;;;;;;;;;;;;;28.76;37.07;102141.03;7353512;19;20583;-58
2023/05/27 11:33:16;;;;;;;;;;;;;;;28.76;37.03;102142.88;7352080;19;19978;-58
2023/05/27 11:35:41;;;;;;;;;;;;;;;28.72;37.06;102142.22;7354560;19;19930;-59
2023/05/27 11:38:15;;;;;;;;;;;;;;;28.66;37.06;102132.81;7354850;19;19914;-58
2023/05/27 11:40:41;;;;;;;;;;;;;;;28.60;37.00;102138.66;7355694;19;20025;-58
2023/05/27 11:43:06;;;;;;;;;;;;;;;28.54;36.71;102144.50;7347553;19;20481;-58
2023/05/27 11:45:35;;;;;;;;;;;;;;;28.49;37.12;102135.94;7347668;19;19939;-58
2023/05/27 11:48:02;;;;;;;;;;;;;;;28.42;37.11;102142.75;7354548;19;19954;-58
2023/05/27 11:50:27;;;;;;;;;;;;;;;28.36;36.71;102129.78;7355718;19;19939;-58
2023/05/27 11:52:56;;;;;;;;;;;;;;;28.31;37.38;102131.91;7351574;19;20747;-58
2023/05/27 11:55:25;;;;;;;;;;;;;;;28.30;37.04;102128.38;7356787;19;19971;-58
2023/05/27 11:57:50;;;;;;;;;;;;;;;28.35;37.32;102128.06;7349655;19;20019;-59
2023/05/27 12:00:15;;;;;;;;;;;;;;;28.49;37.57;102125.19;7354378;19;20024;-58
2023/05/27 12:02:41;;;;;;;;;;;;;;;28.73;38.04;102126.97;7353242;19;19932;-58
2023/05/27 12:05:07;;;;;;;;;;;;;;;29.03;38.08;102113.00;7354569;19;20705;-58
2023/05/27 12:07:33;;;;;;;;;;;;;;;29.38;38.55;102107.50;7353850;19;19922;-59
2023/05/27 12:09:58;;;;;;;;;;;;;;;29.78;37.86;102104.31;7351316;19;19947;-58
2023/05/27 12:12:23;;;;;;;;;;;;;;;30.23;37.79;102105.91;7352686;19;19915;-59
2023/05/27 12:14:49;;;;;;;;;;;;;;;30.80;37.88;102105.66;7351096;19;19930;-59
2023/05/27 12:17:14;;;;;;;;;;;;;;;31.37;38.38;102097.00;7353827;19;20332;-58
2023/05/27 12:19:39;;;;;;;;;;;;;;;31.97;37.47;102088.94;7355344;19;19938;-59
2023/05/27 12:22:04;;;;;;;;;;;;;;;32.56;37.00;102085.25;7344506;19;19931;-59
2023/05/27 12:24:30;;;;;;;;;;;;;;;33.16;37.48;102072.28;7354385;19;20315;-59
2023/05/27 12:26:55;;;;;;;;;;;;;;;33.71;36.53;102069.56;7354858;19;19978;-59
2023/05/27 12:29:24;;;;;;;;;;;;;;;34.13;35.76;102071.69;7345290;19;19916;-58